createdAt,value
2018-05-23T00:02:12.638Z,18.23
2018-05-23T00:04:40.910Z,18.20
2018-05-23T00:07:09.202Z,18.04
2018-05-23T00:09:37.475Z,18.12
2018-05-23T00:12:05.828Z,18.15
2018-05-23T00:14:34.057Z,18.18
2018-05-23T00:17:02.356Z,18.23
2018-05-23T00:19:30.618Z,18.22
2018-05-23T00:21:58.897Z,18.19
2018-05-23T00:24:27.183Z,17.88
2018-05-23T00:26:55.458Z,17.81
2018-05-23T00:29:23.736Z,18.07
2018-05-23T00:31:51.998Z,17.95
2018-05-23T00:34:20.275Z,17.96
2018-05-23T00:36:48.658Z,18.08
2018-05-23T00:39:16.926Z,18.08
2018-05-23T00:41:45.255Z,18.09
2018-05-23T00:44:13.519Z,18.18
2018-05-23T00:46:41.790Z,18.14
2018-05-23T00:49:10.062Z,18.11
2018-05-23T00:51:38.341Z,18.16
2018-05-23T00:54:06.618Z,18.10
2018-05-23T00:56:34.890Z,18.11
2018-05-23T00:59:03.175Z,18.01
2018-05-23T01:01:32.115Z,18.00
2018-05-23T01:04:00.379Z,17.94
2018-05-23T01:06:28.655Z,17.92
2018-05-23T01:08:56.937Z,17.90
2018-05-23T01:11:25.229Z,17.86
2018-05-23T01:13:53.507Z,17.82
2018-05-23T01:16:21.790Z,17.87
2018-05-23T01:18:50.067Z,17.84
2018-05-23T01:21:18.358Z,17.77
2018-05-23T01:23:46.639Z,17.82
2018-05-23T01:26:14.910Z,17.65
2018-05-23T01:28:43.202Z,17.74
2018-05-23T01:31:11.478Z,17.84
2018-05-23T01:33:39.770Z,17.76
2018-05-23T01:36:08.046Z,17.67
2018-05-23T01:38:36.334Z,17.70
2018-05-23T01:41:04.618Z,17.69
2018-05-23T01:43:32.902Z,17.73
2018-05-23T01:46:01.198Z,17.59
2018-05-23T01:48:41.145Z,17.19
2018-05-23T01:51:09.438Z,17.46
2018-05-23T01:53:37.721Z,17.43
2018-05-23T01:56:06.111Z,17.36
2018-05-23T01:58:34.307Z,17.41
2018-05-23T02:01:02.634Z,17.44
2018-05-23T02:03:30.898Z,17.54
2018-05-23T02:05:59.182Z,17.61
2018-05-23T02:08:27.470Z,17.60
2018-05-23T02:10:55.753Z,17.65
2018-05-23T02:13:24.054Z,17.54
2018-05-23T02:15:52.333Z,17.70
2018-05-23T02:18:20.709Z,17.65
2018-05-23T02:20:48.997Z,17.34
2018-05-23T02:23:17.282Z,17.40
2018-05-23T02:25:45.578Z,17.25
2018-05-23T02:28:13.865Z,17.31
2018-05-23T02:30:42.146Z,17.36
2018-05-23T02:33:10.439Z,17.28
2018-05-23T02:35:38.723Z,17.28
2018-05-23T02:38:07.035Z,17.26
2018-05-23T02:40:35.327Z,17.29
2018-05-23T02:43:03.627Z,17.35
2018-05-23T02:45:31.928Z,17.34
2018-05-23T02:48:00.206Z,17.30
2018-05-23T02:50:28.510Z,17.13
2018-05-23T02:52:56.793Z,17.16
2018-05-23T02:55:25.071Z,16.99
2018-05-23T02:57:53.362Z,16.96
2018-05-23T03:00:21.650Z,17.12
2018-05-23T03:02:49.979Z,17.20
2018-05-23T03:05:18.240Z,17.16
2018-05-23T03:07:46.524Z,17.05
2018-05-23T03:10:14.812Z,17.19
2018-05-23T03:12:43.095Z,17.23
2018-05-23T03:15:11.403Z,17.20
2018-05-23T03:17:39.698Z,17.09
2018-05-23T03:20:07.999Z,17.22
2018-05-23T03:22:36.297Z,17.20
2018-05-23T03:25:04.578Z,17.26
2018-05-23T03:27:32.885Z,17.44
2018-05-23T03:30:01.166Z,17.19
2018-05-23T03:32:29.447Z,17.26
2018-05-23T03:34:57.814Z,17.33
2018-05-23T03:37:26.094Z,17.21
2018-05-23T03:39:55.110Z,17.31
2018-05-23T03:42:26.109Z,17.15
2018-05-23T03:44:54.403Z,17.24
2018-05-23T03:47:22.689Z,17.11
2018-05-23T03:49:50.974Z,17.23
2018-05-23T03:52:19.713Z,17.16
2018-05-23T03:54:47.996Z,17.29
2018-05-23T03:57:16.297Z,17.33
2018-05-23T03:59:56.354Z,17.33
2018-05-23T04:02:36.319Z,17.27
2018-05-23T04:05:16.624Z,17.30
2018-05-23T04:07:44.917Z,17.26
2018-05-23T04:10:13.202Z,17.29
2018-05-23T04:12:41.482Z,17.36
2018-05-23T04:15:09.767Z,17.30
2018-05-23T04:17:38.890Z,17.31
2018-05-23T04:20:07.370Z,17.25
2018-05-23T04:22:35.660Z,17.32
2018-05-23T04:25:03.947Z,17.29
2018-05-23T04:27:32.240Z,17.28
2018-05-23T04:30:00.525Z,17.28
2018-05-23T04:32:28.822Z,17.36
2018-05-23T04:34:57.101Z,17.33
2018-05-23T04:37:25.382Z,17.28
2018-05-23T04:39:53.677Z,17.35
2018-05-23T04:42:21.972Z,17.27
2018-05-23T04:44:50.274Z,17.40
2018-05-23T04:47:18.555Z,17.37
2018-05-23T04:49:46.834Z,17.32
2018-05-23T04:52:15.130Z,17.39
2018-05-23T04:54:43.627Z,17.44
2018-05-23T04:57:11.934Z,17.37
2018-05-23T04:59:40.230Z,17.51
2018-05-23T05:02:08.522Z,17.48
2018-05-23T05:04:36.805Z,17.50
2018-05-23T05:07:05.118Z,17.51
2018-05-23T05:09:33.418Z,17.47
2018-05-23T05:12:01.704Z,17.54
2018-05-23T05:14:29.995Z,17.58
2018-05-23T05:16:58.286Z,17.58
2018-05-23T05:19:26.588Z,17.69
2018-05-23T05:21:54.870Z,17.60
2018-05-23T05:24:23.154Z,17.66
2018-05-23T05:26:51.442Z,17.60
2018-05-23T05:29:19.759Z,17.74
2018-05-23T05:31:48.124Z,17.73
2018-05-23T05:34:16.343Z,17.76
2018-05-23T05:36:44.622Z,17.86
2018-05-23T05:39:12.902Z,17.84
2018-05-23T05:41:41.206Z,17.92
2018-05-23T05:44:09.528Z,17.99
2018-05-23T05:46:37.810Z,17.89
2018-05-23T05:49:06.116Z,17.86
2018-05-23T05:51:34.397Z,17.99
2018-05-23T05:54:02.694Z,18.14
2018-05-23T05:56:31.003Z,18.09
2018-05-23T05:58:59.282Z,17.92
2018-05-23T06:01:27.570Z,17.99
2018-05-23T06:03:56.766Z,18.02
2018-05-23T06:06:25.107Z,18.17
2018-05-23T06:08:53.351Z,18.32
2018-05-23T06:11:21.627Z,18.30
2018-05-23T06:13:49.921Z,18.37
2018-05-23T06:16:18.287Z,18.36
2018-05-23T06:18:46.590Z,18.33
2018-05-23T06:21:14.874Z,18.38
2018-05-23T06:23:43.178Z,18.36
2018-05-23T06:26:11.462Z,18.47
2018-05-23T06:28:39.742Z,18.40
2018-05-23T06:31:08.074Z,18.45
2018-05-23T06:33:36.398Z,18.47
2018-05-23T06:36:04.677Z,18.51
2018-05-23T06:38:32.973Z,18.41
2018-05-23T06:41:01.266Z,18.35
2018-05-23T06:43:29.658Z,18.52
2018-05-23T06:45:58.138Z,18.57
2018-05-23T06:48:26.391Z,18.57
2018-05-23T06:50:54.714Z,18.56
2018-05-23T06:53:23.020Z,18.58
2018-05-23T06:55:51.306Z,18.58
2018-05-23T06:58:19.634Z,18.53
2018-05-23T07:00:47.917Z,18.61
2018-05-23T07:03:16.259Z,18.63
2018-05-23T07:05:44.577Z,18.57
2018-05-23T07:08:12.876Z,18.74
2018-05-23T07:10:41.175Z,18.71
2018-05-23T07:13:09.454Z,18.60
2018-05-23T07:15:37.753Z,18.53
2018-05-23T07:18:06.077Z,18.38
2018-05-23T07:20:34.369Z,18.63
2018-05-23T07:23:02.646Z,18.80
2018-05-23T07:25:30.922Z,19.03
2018-05-23T07:27:59.227Z,19.24
2018-05-23T07:30:27.509Z,19.41
2018-05-23T07:32:55.817Z,19.49
2018-05-23T07:35:24.114Z,19.48
2018-05-23T07:37:52.398Z,19.60
2018-05-23T07:40:20.694Z,19.71
2018-05-23T07:42:48.982Z,19.63
2018-05-23T07:45:17.264Z,19.60
2018-05-23T07:47:45.546Z,19.51
2018-05-23T07:50:13.842Z,19.68
2018-05-23T07:52:42.165Z,19.65
2018-05-23T07:55:10.459Z,19.51
2018-05-23T07:57:38.770Z,19.66
2018-05-23T08:00:07.142Z,19.70
2018-05-23T08:02:35.446Z,20.02
2018-05-23T08:05:03.745Z,20.18
2018-05-23T08:07:32.042Z,19.99
2018-05-23T08:10:00.344Z,20.04
2018-05-23T08:12:28.659Z,20.02
2018-05-23T08:14:56.951Z,19.90
2018-05-23T08:17:25.261Z,20.09
2018-05-23T08:19:53.554Z,20.12
2018-05-23T08:22:21.881Z,20.60
2018-05-23T08:24:50.138Z,20.14
2018-05-23T08:27:18.447Z,20.18
2018-05-23T08:29:46.820Z,20.08
2018-05-23T08:32:15.023Z,20.09
2018-05-23T08:34:43.330Z,20.69
2018-05-23T08:37:11.618Z,20.68
2018-05-23T08:39:39.910Z,20.80
2018-05-23T08:42:08.197Z,21.06
2018-05-23T08:44:36.474Z,20.95
2018-05-23T08:47:04.776Z,21.34
2018-05-23T08:49:33.054Z,21.66
2018-05-23T08:52:01.995Z,21.77
2018-05-23T08:54:30.308Z,21.57
2018-05-23T08:56:58.578Z,21.69
2018-05-23T08:59:26.877Z,21.31
2018-05-23T09:01:55.156Z,21.41
2018-05-23T09:04:23.439Z,21.44
2018-05-23T09:06:52.410Z,21.44
2018-05-23T09:09:20.750Z,21.23
2018-05-23T09:11:49.030Z,21.28
2018-05-23T09:14:17.316Z,21.27
2018-05-23T09:16:45.597Z,21.34
2018-05-23T09:19:13.888Z,21.29
2018-05-23T09:21:42.175Z,21.51
2018-05-23T09:24:10.462Z,21.49
2018-05-23T09:26:38.746Z,21.88
2018-05-23T09:29:07.022Z,22.12
2018-05-23T09:31:35.364Z,22.42
2018-05-23T09:34:03.607Z,21.72
2018-05-23T09:36:31.917Z,22.37
2018-05-23T09:39:00.199Z,22.42
2018-05-23T09:41:28.482Z,22.42
2018-05-23T09:43:56.778Z,22.41
2018-05-23T09:46:25.058Z,22.15
2018-05-23T09:48:53.366Z,22.20
2018-05-23T09:51:21.678Z,22.08
2018-05-23T09:53:49.965Z,21.95
2018-05-23T09:56:18.260Z,22.31
2018-05-23T09:58:46.538Z,22.08
2018-05-23T10:01:14.839Z,22.32
2018-05-23T10:03:43.113Z,22.33
2018-05-23T10:06:11.406Z,22.25
2018-05-23T10:08:39.708Z,22.42
2018-05-23T10:11:07.986Z,22.20
2018-05-23T10:13:36.294Z,22.07
2018-05-23T10:16:04.580Z,22.12
2018-05-23T10:18:33.633Z,22.09
2018-05-23T10:21:01.931Z,21.88
2018-05-23T10:23:30.194Z,22.03
2018-05-23T10:25:58.510Z,22.06
2018-05-23T10:28:26.784Z,22.07
2018-05-23T10:30:55.065Z,21.89
2018-05-23T10:33:23.445Z,22.06
2018-05-23T10:35:51.650Z,21.98
2018-05-23T10:38:19.942Z,22.05
2018-05-23T10:40:48.262Z,22.05
2018-05-23T10:43:16.541Z,22.11
2018-05-23T10:45:44.818Z,21.98
2018-05-23T10:48:13.090Z,21.80
2018-05-23T10:50:41.390Z,21.79
2018-05-23T10:53:09.666Z,21.72
2018-05-23T10:55:37.954Z,21.68
2018-05-23T10:58:06.247Z,21.68
2018-05-23T11:00:34.531Z,21.53
2018-05-23T11:03:02.923Z,21.76
2018-05-23T11:05:31.104Z,21.63
2018-05-23T11:07:59.370Z,21.66
2018-05-23T11:10:27.669Z,21.62
2018-05-23T11:12:55.942Z,21.34
2018-05-23T11:15:24.240Z,21.52
2018-05-23T11:17:52.529Z,21.26
2018-05-23T11:20:20.803Z,21.48
2018-05-23T11:22:49.814Z,21.43
2018-05-23T11:25:18.090Z,21.33
2018-05-23T11:27:46.383Z,21.35
2018-05-23T11:30:14.664Z,21.20
2018-05-23T11:32:42.954Z,21.15
2018-05-23T11:35:11.246Z,21.30
2018-05-23T11:37:39.517Z,21.27
2018-05-23T11:40:07.810Z,21.40
2018-05-23T11:45:03.410Z,21.27
2018-05-23T11:47:31.694Z,21.46
2018-05-23T11:50:00.006Z,21.65
2018-05-23T11:52:28.302Z,21.10
2018-05-23T11:54:56.570Z,21.39
2018-05-23T11:57:24.880Z,21.25
2018-05-23T11:59:53.169Z,21.57
2018-05-23T12:02:21.446Z,21.19
2018-05-23T12:04:49.861Z,21.28
2018-05-23T12:07:18.131Z,21.05
2018-05-23T12:09:47.268Z,21.57
2018-05-23T12:12:15.563Z,21.73
2018-05-23T12:14:43.845Z,21.85
2018-05-23T12:17:12.198Z,21.53
2018-05-23T12:19:40.497Z,21.56
2018-05-23T12:22:08.762Z,21.53
2018-05-23T12:24:37.038Z,21.28
2018-05-23T12:27:05.361Z,21.70
2018-05-23T12:29:33.651Z,21.48
2018-05-23T12:32:01.930Z,21.42
2018-05-23T12:34:30.222Z,21.65
2018-05-23T12:36:58.524Z,21.28
2018-05-23T12:39:26.779Z,21.04
2018-05-23T12:41:55.054Z,21.19
2018-05-23T12:44:23.338Z,21.49
2018-05-23T12:46:51.609Z,21.58
2018-05-23T12:49:19.902Z,21.69
2018-05-23T12:51:48.174Z,21.64
2018-05-23T12:54:16.447Z,21.77
2018-05-23T12:56:44.726Z,21.81
2018-05-23T12:59:13.001Z,21.70
2018-05-23T13:01:41.290Z,21.55
2018-05-23T13:04:09.566Z,21.30
2018-05-23T13:06:37.842Z,21.49
2018-05-23T13:09:07.837Z,21.68
2018-05-23T13:11:36.138Z,21.75
2018-05-23T13:14:04.438Z,21.57
2018-05-23T13:16:32.716Z,21.87
2018-05-23T13:19:01.078Z,21.81
2018-05-23T13:21:29.280Z,21.92
2018-05-23T13:23:57.574Z,21.81
2018-05-23T13:26:25.858Z,21.78
2018-05-23T13:28:54.139Z,21.86
2018-05-23T13:31:23.198Z,22.01
2018-05-23T13:33:51.481Z,22.06
2018-05-23T13:36:19.754Z,22.01
2018-05-23T13:38:49.220Z,22.04
2018-05-23T13:41:17.440Z,22.09
2018-05-23T13:43:45.709Z,22.41
2018-05-23T13:46:13.986Z,22.55
2018-05-23T13:48:42.258Z,22.38
2018-05-23T13:51:10.551Z,22.30
2018-05-23T13:53:38.823Z,22.40
2018-05-23T13:56:07.090Z,22.69
2018-05-23T13:58:35.404Z,22.93
2018-05-23T14:01:03.684Z,22.63
2018-05-23T14:03:31.966Z,22.84
2018-05-23T14:06:00.234Z,22.79
2018-05-23T14:08:39.395Z,23.02
2018-05-23T14:11:07.681Z,23.02
2018-05-23T14:13:35.945Z,22.81
2018-05-23T14:16:04.222Z,22.96
2018-05-23T14:18:32.494Z,22.55
2018-05-23T14:21:01.058Z,22.89
2018-05-23T14:23:29.329Z,23.00
2018-05-23T14:25:57.624Z,23.23
2018-05-23T14:28:26.843Z,23.34
2018-05-23T14:30:55.028Z,23.40
2018-05-23T14:33:23.326Z,23.65
2018-05-23T14:35:51.643Z,24.05
2018-05-23T14:38:19.894Z,23.96
2018-05-23T14:40:48.186Z,24.38
2018-05-23T14:43:16.466Z,24.21
2018-05-23T14:45:45.077Z,24.51
2018-05-23T14:48:13.345Z,24.01
2018-05-23T14:50:41.618Z,23.86
2018-05-23T14:53:09.898Z,24.18
2018-05-23T14:55:38.198Z,24.57
2018-05-23T14:58:06.481Z,24.43
2018-05-23T15:00:34.758Z,24.17
2018-05-23T15:03:03.400Z,24.22
2018-05-23T15:05:31.670Z,24.35
2018-05-23T15:07:59.946Z,24.28
2018-05-23T15:10:28.843Z,24.54
2018-05-23T15:12:57.109Z,24.40
2018-05-23T15:15:25.458Z,24.55
2018-05-23T15:17:53.742Z,24.67
2018-05-23T15:20:22.014Z,24.46
2018-05-23T15:22:50.310Z,24.79
2018-05-23T15:25:18.594Z,24.65
2018-05-23T15:27:46.874Z,24.89
2018-05-23T15:30:15.163Z,24.79
2018-05-23T15:32:43.450Z,24.96
2018-05-23T15:35:11.820Z,25.02
2018-05-23T15:37:40.123Z,25.24
2018-05-23T15:40:08.388Z,25.13
2018-05-23T15:42:36.672Z,25.21
2018-05-23T15:45:04.954Z,25.22
2018-05-23T15:47:33.234Z,25.13
2018-05-23T15:50:01.511Z,25.05
2018-05-23T15:52:29.781Z,24.90
2018-05-23T15:54:58.058Z,24.87
2018-05-23T15:57:26.335Z,24.69
2018-05-23T15:59:54.633Z,24.49
2018-05-23T16:02:22.901Z,24.55
2018-05-23T16:04:51.201Z,24.41
2018-05-23T16:07:19.478Z,24.48
2018-05-23T16:09:47.755Z,24.50
2018-05-23T16:12:16.033Z,24.62
2018-05-23T16:14:44.313Z,24.78
2018-05-23T16:17:12.582Z,24.77
2018-05-23T16:19:40.872Z,24.97
2018-05-23T16:22:09.150Z,25.07
2018-05-23T16:24:37.512Z,25.16
2018-05-23T16:27:05.722Z,25.21
2018-05-23T16:29:34.002Z,25.33
2018-05-23T16:32:02.289Z,25.42
2018-05-23T16:34:30.562Z,25.39
2018-05-23T16:36:58.853Z,25.18
2018-05-23T16:39:27.122Z,25.36
2018-05-23T16:41:55.390Z,25.44
2018-05-23T16:44:23.761Z,25.47
2018-05-23T16:46:51.995Z,24.98
2018-05-23T16:49:21.322Z,24.78
2018-05-23T16:51:49.629Z,24.57
2018-05-23T16:54:17.953Z,24.58
2018-05-23T16:56:46.251Z,24.70
2018-05-23T16:59:14.523Z,24.80
2018-05-23T17:01:42.822Z,24.75
2018-05-23T17:04:11.108Z,24.82
2018-05-23T17:06:39.393Z,24.81
2018-05-23T17:09:08.650Z,24.98
2018-05-23T17:11:36.924Z,24.89
2018-05-23T17:14:05.226Z,24.99
2018-05-23T17:16:33.506Z,24.80
2018-05-23T17:19:01.779Z,24.84
2018-05-23T17:21:30.054Z,24.89
2018-05-23T17:23:58.419Z,24.80
2018-05-23T17:26:26.670Z,24.73
2018-05-23T17:28:54.941Z,24.78
2018-05-23T17:31:23.225Z,24.67
2018-05-23T17:33:51.506Z,24.32
2018-05-23T17:36:19.782Z,24.28
2018-05-23T17:38:48.070Z,24.28
2018-05-23T17:41:16.603Z,24.17
2018-05-23T17:43:44.871Z,24.28
2018-05-23T17:46:13.161Z,24.18
2018-05-23T17:48:41.429Z,24.08
2018-05-23T17:51:09.741Z,24.02
2018-05-23T17:53:38.022Z,24.13
2018-05-23T17:56:06.305Z,24.06
2018-05-23T17:58:34.601Z,24.00
2018-05-23T18:01:02.858Z,24.00
2018-05-23T18:03:31.145Z,23.98
2018-05-23T18:05:59.443Z,23.98
2018-05-23T18:08:27.694Z,23.95
2018-05-23T18:10:55.988Z,23.88
2018-05-23T18:13:24.268Z,23.87
2018-05-23T18:15:52.581Z,23.83
2018-05-23T18:18:22.132Z,23.78
2018-05-23T18:20:50.422Z,23.70
2018-05-23T18:23:18.838Z,23.71
2018-05-23T18:25:47.070Z,23.70
2018-05-23T18:28:15.444Z,23.61
2018-05-23T18:30:43.642Z,23.57
2018-05-23T18:33:11.919Z,23.55
2018-05-23T18:35:40.210Z,23.58
2018-05-23T18:38:08.487Z,23.59
2018-05-23T18:40:36.778Z,23.67
2018-05-23T18:43:05.042Z,23.66
2018-05-23T18:45:33.310Z,23.58
2018-05-23T18:48:01.609Z,23.56
2018-05-23T18:50:29.909Z,23.49
2018-05-23T18:52:58.197Z,23.49
2018-05-23T18:55:26.469Z,23.42
2018-05-23T18:57:54.760Z,23.46
2018-05-23T19:00:23.061Z,23.43
2018-05-23T19:02:51.326Z,23.41
2018-05-23T19:05:19.676Z,23.22
2018-05-23T19:07:47.905Z,23.21
2018-05-23T19:10:16.178Z,23.20
2018-05-23T19:12:44.466Z,23.22
2018-05-23T19:15:12.739Z,23.10
2018-05-23T19:17:41.080Z,23.05
2018-05-23T19:20:09.373Z,22.87
2018-05-23T19:22:37.615Z,22.82
2018-05-23T19:25:05.901Z,22.73
2018-05-23T19:27:34.168Z,22.84
2018-05-23T19:30:02.457Z,22.72
2018-05-23T19:32:30.726Z,22.60
2018-05-23T19:34:58.998Z,22.63
2018-05-23T19:37:27.289Z,22.50
2018-05-23T19:39:55.562Z,22.37
2018-05-23T19:42:24.393Z,22.44
2018-05-23T19:44:52.669Z,22.41
2018-05-23T19:47:21.006Z,22.31
2018-05-23T19:49:49.242Z,22.41
2018-05-23T19:52:17.515Z,22.35
2018-05-23T19:54:45.790Z,22.29
2018-05-23T19:57:14.063Z,22.20
2018-05-23T19:59:42.335Z,22.32
2018-05-23T20:02:10.631Z,22.22
2018-05-23T20:04:38.885Z,22.10
2018-05-23T20:07:07.168Z,22.21
2018-05-23T20:09:35.434Z,22.04
2018-05-23T20:12:03.702Z,21.88
2018-05-23T20:14:32.073Z,21.89
2018-05-23T20:17:00.259Z,21.89
2018-05-23T20:19:28.553Z,21.84
2018-05-23T20:21:56.899Z,21.78
2018-05-23T20:24:25.090Z,21.74
2018-05-23T20:26:53.379Z,21.56
2018-05-23T20:29:21.671Z,21.78
2018-05-23T20:31:49.978Z,21.59
2018-05-23T20:34:18.254Z,21.53
2018-05-23T20:36:46.519Z,21.44
2018-05-23T20:39:14.798Z,21.31
2018-05-23T20:41:43.072Z,21.21
2018-05-23T20:46:48.662Z,21.29
2018-05-23T20:49:16.958Z,21.35
2018-05-23T20:51:45.233Z,21.27
2018-05-23T20:54:13.513Z,21.34
2018-05-23T20:56:41.797Z,20.89
2018-05-23T20:59:10.078Z,21.01
2018-05-23T21:01:38.433Z,20.88
2018-05-23T21:04:06.706Z,20.60
2018-05-23T21:06:34.982Z,20.77
2018-05-23T21:09:03.262Z,20.74
2018-05-23T21:11:37.129Z,20.58
2018-05-23T21:14:05.400Z,20.61
2018-05-23T21:16:33.966Z,20.70
2018-05-23T21:19:02.239Z,20.53
2018-05-23T21:21:30.522Z,20.44
2018-05-23T21:23:58.795Z,20.62
2018-05-23T21:26:27.086Z,20.56
2018-05-23T21:28:55.355Z,20.52
2018-05-23T21:31:23.617Z,20.43
2018-05-23T21:33:51.897Z,20.31
2018-05-23T21:36:20.254Z,20.05
2018-05-23T21:38:48.554Z,20.03
2018-05-23T21:41:16.830Z,19.97
2018-05-23T21:43:45.102Z,19.80
2018-05-23T21:46:13.387Z,20.11
2018-05-23T21:48:41.658Z,20.20
2018-05-23T21:51:09.958Z,20.12
2018-05-23T21:53:38.226Z,20.17
2018-05-23T21:56:06.505Z,20.07
2018-05-23T21:58:34.781Z,20.02
2018-05-23T22:01:03.054Z,19.96
2018-05-23T22:03:31.342Z,20.09
2018-05-23T22:05:59.609Z,20.01
2018-05-23T22:08:27.881Z,20.03
2018-05-23T22:10:56.153Z,20.11
2018-05-23T22:13:24.529Z,19.82
2018-05-23T22:15:52.818Z,20.00
2018-05-23T22:18:21.181Z,19.80
2018-05-23T22:20:49.353Z,19.63
2018-05-23T22:23:17.638Z,19.68
2018-05-23T22:25:45.910Z,19.71
2018-05-23T22:28:15.026Z,19.62
2018-05-23T22:30:43.333Z,19.39
2018-05-23T22:33:11.570Z,19.27
2018-05-23T22:35:39.853Z,19.02
2018-05-23T22:38:08.118Z,19.06
2018-05-23T22:40:36.402Z,19.21
2018-05-23T22:43:04.674Z,19.10
2018-05-23T22:45:32.947Z,19.16
2018-05-23T22:48:01.243Z,19.01
2018-05-23T22:50:29.509Z,18.93
2018-05-23T22:52:57.797Z,19.19
2018-05-23T22:55:26.070Z,19.01
2018-05-23T22:57:54.346Z,19.12
2018-05-23T23:00:22.642Z,19.01
2018-05-23T23:02:50.631Z,19.18
2018-05-23T23:05:18.939Z,18.79
2018-05-23T23:07:47.214Z,18.63
2018-05-23T23:10:15.489Z,18.69
2018-05-23T23:12:43.793Z,18.76
2018-05-23T23:15:12.099Z,18.84
2018-05-23T23:17:41.238Z,18.82
2018-05-23T23:20:09.521Z,18.78
2018-05-23T23:22:38.586Z,19.03
2018-05-23T23:25:06.870Z,19.06
2018-05-23T23:27:35.142Z,19.01
2018-05-23T23:30:03.433Z,18.94
2018-05-23T23:32:31.711Z,18.74
2018-05-23T23:34:59.990Z,18.90
2018-05-23T23:37:28.276Z,19.09
2018-05-23T23:39:56.544Z,19.01
2018-05-23T23:42:24.834Z,18.97
2018-05-23T23:44:53.115Z,18.90
2018-05-23T23:47:21.382Z,18.90
2018-05-23T23:49:49.658Z,18.79
2018-05-23T23:52:18.238Z,18.94
2018-05-23T23:54:46.515Z,18.85
2018-05-23T23:57:14.791Z,18.84
2018-05-23T23:59:45.002Z,18.73
